Flight Track Log - Related Links

Times and Time Zones

All times are in EDT time to prevent confusion due to time zone crossing. See the EJA122 flight status page for this flight to view local times or setup timezone preferences in your user account.

Time Position Orientation Groundspeed Altitude Reporting Facility
EDT Latitude Longitude Course Direction KTS MPH feet Rate Location/Type
Thu 10:13:53 AM 38.9833 -77.5333 293° West 219 252 4,000  Level Potomac TRACON
Thu 10:14:53 AM 39.0333 -77.6000 314° West 263 303 5,500 2,579 Climbing Potomac TRACON
Thu 10:15:47 AM 39.0833 -77.6333 333° Northwest 292 336 8,900 2,914 Climbing Potomac TRACON
Thu 10:16:38 AM 39.1442 -77.6308 North 305 351 10,600 1,568 Climbing Washington Center
Thu 10:17:38 AM 39.2400 -77.6389 356° North 319 367 11,800 1,488 Climbing Washington Center
Thu 10:18:39 AM 39.3436 -77.6714 346° North 345 397 13,600 1,916 Climbing Washington Center
Thu 10:19:00 AM 39.3283 -78.0509 293° West  Level Estimated
Thu 10:19:37 AM 39.4472 -77.7067 345° North 364 419 15,600  Level Washington Center
Thu 10:21:34 AM 39.6114 -77.8594 324° Northwest 368 423 19,200 1,475 Climbing Cleveland Center
Thu 10:22:36 AM 39.6906 -77.9422 321° Northwest 365 420 20,000 384 Climbing Cleveland Center
Thu 10:23:39 AM 39.7761 -78.0308 321° Northwest 383 441 20,000  Level Cleveland Center
Thu 10:24:41 AM 39.8619 -78.1283 319° Northwest 402 463 20,000  Level Cleveland Center
Thu 10:25:43 AM 39.9478 -78.2647 309° West 403 464 20,000  Level Cleveland Center
Thu 10:26:45 AM 40.0228 -78.3781 311° West 401 461 20,000  Level Cleveland Center
Thu 10:27:47 AM 40.0936 -78.4872 310° West 397 457 20,000  Level Cleveland Center
Thu 10:28:49 AM 40.1647 -78.5953 311° West 396 456 20,000  Level Cleveland Center
Thu 10:29:51 AM 40.2353 -78.7042 310° West 393 452 20,000  Level Cleveland Center
Thu 10:30:53 AM 40.3056 -78.8139 310° West 394 453 20,000  Level Cleveland Center
Thu 10:31:55 AM 40.3847 -78.9511 307° West 394 453 20,000  Level Cleveland Center
Thu 10:32:57 AM 40.4519 -79.0722 306° West 411 473 20,000  Level Cleveland Center
Thu 10:33:59 AM 40.5194 -79.1917 307° West 405 466 20,000  Level Cleveland Center
Thu 10:35:01 AM 40.5831 -79.3064 306° West 407 468 20,000  Level Cleveland Center
Thu 10:36:03 AM 40.6508 -79.4267 307° West 411 473 20,000  Level Cleveland Center
Thu 10:37:05 AM 40.7308 -79.5700 306° West 409 471 20,000  Level Cleveland Center
Thu 10:38:07 AM 40.7972 -79.6894 306° West 407 468 20,000  Level Cleveland Center
Thu 10:39:10 AM 40.8628 -79.8094 306° West 407 468 20,000  Level Cleveland Center
Thu 10:40:12 AM 40.9289 -79.9300 306° West 409 471 20,000 -242 Level Cleveland Center
Thu 10:41:14 AM 40.9950 -80.0497 306° West 407 468 19,500 -1,113 Descending Cleveland Center
Thu 10:42:16 AM 41.0703 -80.1889 306° West 392 451 17,700 -1,597 Descending Cleveland Center
Thu 10:43:18 AM 41.1322 -80.3050 305° West 389 448 16,200 -823 Descending Cleveland Center
Thu 10:44:20 AM 41.1997 -80.4294 306° West 389 448 16,000 -97 Descending Cleveland Center
Thu 10:45:22 AM 41.2628 -80.5458 306° West 386 444 16,000 -532 Level Cleveland Center
Thu 10:46:24 AM 41.3253 -80.6631 305° West 386 444 14,900 -1,514 Descending Cleveland Center
Thu 10:47:09 AM 41.3647 -80.7650 297° West 363 418 13,300 -1,935 Descending Cleveland Center
Thu 10:47:26 AM 41.3733 -80.7833 302° West 368 423 12,900 -1,917 Descending Cleveland Center
Thu 10:48:21 AM 41.4128 -80.8919 296° West 310 357 11,000 -1,839 Descending Cleveland Center
Thu 10:48:28 AM 41.4133 -80.8914 37° Northeast 326 375 11,000 -1,714 Level Cleveland Center
Thu 10:49:10 AM 41.4419 -80.9686 296° West 271 312 9,600 -1,645 Descending Cleveland Center
Thu 10:49:30 AM 41.4489 -80.9839 301° West 282 325 9,300 -1,574 Descending Cleveland Center
Thu 10:50:11 AM 41.4767 -81.0547 298° West 262 302 8,000 -1,839 Descending Cleveland Center
Thu 10:50:32 AM 41.4872 -81.0875 293° West 268 308 7,400 -1,600 Descending Cleveland Center
Thu 10:51:11 AM 41.5092 -81.1406 299° West 259 298 6,400 -1,548 Descending Cleveland Center
Thu 10:51:34 AM 41.5175 -81.1728 289° West 258 297 5,800 -1,475 Descending Cleveland Center
Thu 10:52:12 AM 41.5242 -81.2322 279° West 259 298 4,900 -1,452 Descending Cleveland Center
Thu 10:52:36 AM 41.5292 -81.2664 281° West 254 292 4,300 -1,700 Descending Cleveland Center
Thu 10:53:12 AM 41.5428 -81.3328 285° West 265 305 3,200 -804 Descending Cleveland Center
Thu 10:54:13 AM 41.5575 -81.4275 282° West 253 291 3,000 -136 Descending Cleveland Center
Thu 10:54:40 AM 41.5594 -81.4486 277° West 245 282 3,000 -358 Level Cleveland Center
Thu 10:55:20 AM 41.5714 -81.5078 285° West 209 241 2,600 -381 Descending Cleveland Center
Thu 10:55:43 AM 41.5717 -81.5256 271° West 219 252 2,600 -300 Level Cleveland Center
Thu 10:56:20 AM 41.5675 -81.5742 263° West 180 207 2,300 -581 Descending Cleveland Center
Thu 10:56:45 AM 41.5558 -81.5958 234° Southwest 184 212 2,000 -689 Descending Cleveland Center
Thu 10:57:21 AM 41.5461 -81.6239 245° Southwest 141 162 1,600 -774 Descending Cleveland Center
Thu 10:57:47 AM 41.5353 -81.6400 228° Southwest 156 180 1,200 -689 Descending Cleveland Center
Thu 10:58:22 AM 41.5283 -81.6603 245° Southwest 115 132 900 -484 Descending Cleveland Center
Thu 10:58:49 AM 41.5206 -81.6706 225° Southwest 134 154 700 -444 Descending Cleveland Center
Thu 11:00:00 AM 41.5167 -81.6667 242° Southwest  Level FlightAware Approximate

Login

Don't have an account? Register now (free) for customized features, flight alerts, and more!